Terminal Aerodrome Forecast
Issued by NWS

Home | Current Version | Previous Version | Text Only | Print | Product List | Glossary On
Versions: 1 2 3 4 5 6 7 8 9 10 11
000
FTPA31 PHFO 120532
TAFHTO
TAF
PHTO 120532Z 1206/1306 23004KT P6SM FEW025 FEW045
     FM122100 06012KT P6SM FEW025 SCT045
     FM130300 VRB05KT P6SM FEW025 SCT045=

USA.gov is the U.S. government's official web portal to all federal, state and local government web resources and services.